Ekibastuz Airport


Codes: UASB/EKB
Name: Ekibastuz Airport
City: Ekibastuz
Country: Kazakhstan
Elevation: 621 ft.
Wikipedia:

Photos at Ekibastuz Airport


   Photos courtesy of SpottingLog. You can add your own sightings and photos by signing up for a free trial today.



No photos found.

Weather at Ekibastuz Airport


Time (UTC)DescriptionTempratureWindCloud coverageVisibilityPressureHumidity
19-Apr-2024 03:00Overcast Clouds16°C13 mph, NW100%10000m1018hPa65%
19-Apr-2024 06:00Overcast Clouds18°C13 mph, NW98%10000m1018hPa63%
19-Apr-2024 09:00Broken Clouds20°C16 mph, NW79%10000m1019hPa55%
19-Apr-2024 12:00Scattered Clouds20°C16 mph, N41%10000m1021hPa45%
19-Apr-2024 15:00Clear Sky16°C9 mph, N6%10000m1022hPa52%
19-Apr-2024 18:00Clear Sky13°C7 mph, NE7%10000m1023hPa57%
19-Apr-2024 21:00Clear Sky12°C4 mph, E2%10000m1024hPa62%
20-Apr-2024 00:00Clear Sky10°C4 mph, NE4%10000m1025hPa66%
20-Apr-2024 03:00Few Clouds13°C7 mph, NE19%10000m1026hPa54%
20-Apr-2024 06:00Few Clouds16°C9 mph, NE22%10000m1026hPa46%
20-Apr-2024 09:00Clear Sky19°C9 mph, NE9%10000m1026hPa43%
20-Apr-2024 12:00Clear Sky19°C9 mph, NE5%10000m1026hPa42%
20-Apr-2024 15:00Clear Sky15°C9 mph, E0%10000m1027hPa54%
20-Apr-2024 18:00Clear Sky13°C7 mph, SE0%10000m1027hPa57%
20-Apr-2024 21:00Clear Sky11°C7 mph, SE0%10000m1027hPa57%
21-Apr-2024 00:00Clear Sky10°C7 mph, SE0%10000m1028hPa56%
21-Apr-2024 03:00Clear Sky14°C4 mph, SE0%10000m1028hPa41%
21-Apr-2024 06:00Clear Sky18°C4 mph, SE0%10000m1027hPa35%
21-Apr-2024 09:00Clear Sky21°C4 mph, E1%10000m1026hPa35%
21-Apr-2024 12:00Clear Sky22°C4 mph, NE0%10000m1024hPa35%
21-Apr-2024 15:00Clear Sky18°C4 mph, SE0%10000m1024hPa45%
21-Apr-2024 18:00Clear Sky17°C9 mph, SW0%10000m1023hPa48%
21-Apr-2024 21:00Clear Sky15°C9 mph, SW0%10000m1021hPa54%
22-Apr-2024 00:00Clear Sky14°C11 mph, W0%10000m1021hPa61%
22-Apr-2024 03:00Clear Sky17°C16 mph, NE1%10000m1023hPa73%
22-Apr-2024 06:00Clear Sky19°C16 mph, N4%10000m1023hPa51%
22-Apr-2024 09:00Clear Sky21°C13 mph, N4%10000m1023hPa29%
22-Apr-2024 12:00Clear Sky20°C13 mph, N2%10000m1023hPa22%
22-Apr-2024 15:00Clear Sky15°C9 mph, N2%10000m1024hPa32%
22-Apr-2024 18:00Clear Sky13°C7 mph, N1%10000m1024hPa40%
22-Apr-2024 21:00Clear Sky11°C4 mph, NW7%10000m1023hPa45%
23-Apr-2024 00:00Clear Sky9°C7 mph, N7%10000m1023hPa54%
23-Apr-2024 03:00Clear Sky13°C9 mph, N6%10000m1024hPa47%
23-Apr-2024 06:00Clear Sky15°C11 mph, N5%10000m1023hPa39%
23-Apr-2024 09:00Few Clouds16°C13 mph, N18%10000m1023hPa35%
23-Apr-2024 12:00Few Clouds14°C13 mph, N17%10000m1022hPa38%
23-Apr-2024 15:00Few Clouds10°C11 mph, NE20%10000m1023hPa40%
23-Apr-2024 18:00Few Clouds8°C11 mph, E17%10000m1023hPa32%
23-Apr-2024 21:00Broken Clouds7°C11 mph, E60%10000m1022hPa33%
24-Apr-2024 00:00Broken Clouds5°C13 mph, E80%10000m1022hPa39%